Time;durP1;ratioP1;P1;durP2;ratioP2;P2;SDS_P1;SDS_P2;PMS_P1;PMS_P2;Temp;Humidity;BMP_temperature;BMP_pressure;BME280_temperature;BME280_humidity;BME280_pressure;Samples;Min_cycle;Max_cycle;Signal;HPM_P1;HPM_P2
2020/12/12 00:00:56;;;;;;;39.45;16.90;;;;;;;2.73;90.72;99170.03;4977757;28;20035;-77
2020/12/12 00:03:21;;;;;;;41.28;16.80;;;;;;;2.53;90.90;99141.13;4994592;28;20045;-75
2020/12/12 00:05:47;;;;;;;41.53;17.58;;;;;;;2.54;91.11;99148.97;4994868;28;20042;-77
2020/12/12 00:08:12;;;;;;;45.17;18.60;;;;;;;2.44;91.43;99145.03;4977251;28;20039;-76
2020/12/12 00:10:38;;;;;;;44.63;18.88;;;;;;;2.62;91.94;99164.41;4995017;28;20062;-77
2020/12/12 00:13:03;;;;;;;41.58;18.33;;;;;;;2.77;91.65;99178.66;4994681;28;20042;-75
2020/12/12 00:15:29;;;;;;;44.20;17.85;;;;;;;2.67;92.04;99161.56;4977267;28;20149;-78
2020/12/12 00:17:54;;;;;;;40.25;17.23;;;;;;;2.78;92.02;99167.19;4961157;28;20403;-76
2020/12/12 00:20:19;;;;;;;42.42;16.70;;;;;;;2.72;92.34;99170.97;4994297;28;20038;-76
2020/12/12 00:22:45;;;;;;;46.40;17.95;;;;;;;2.59;92.55;99160.13;4994528;28;20111;-75
2020/12/12 00:25:10;;;;;;;43.33;16.50;;;;;;;2.70;92.58;99164.94;4976814;28;20046;-78
2020/12/12 00:27:36;;;;;;;44.60;17.08;;;;;;;2.84;91.99;99166.91;4994368;28;20046;-76
2020/12/12 00:30:04;;;;;;;37.85;16.55;;;;;;;2.75;91.48;99152.38;4961154;28;20034;-77
2020/12/12 00:32:29;;;;;;;41.55;17.52;;;;;;;2.58;91.98;99131.22;4976911;28;20108;-75
2020/12/12 00:34:56;;;;;;;35.08;16.00;;;;;;;2.87;91.32;99162.34;4976515;28;20034;-76
2020/12/12 00:37:22;;;;;;;35.13;14.70;;;;;;;2.91;91.36;99154.31;4994186;28;20037;-76
2020/12/12 00:39:47;;;;;;;34.40;14.55;;;;;;;2.72;91.61;99149.91;4976985;28;20040;-77
2020/12/12 00:42:13;;;;;;;37.20;16.30;;;;;;;2.57;92.02;99126.91;4976552;28;20039;-77
2020/12/12 00:44:38;;;;;;;41.28;14.77;;;;;;;2.60;91.46;99110.94;4994296;28;20113;-77
2020/12/12 00:47:05;;;;;;;34.03;14.68;;;;;;;2.58;91.55;99099.63;4994241;28;20037;-77
2020/12/12 00:49:30;;;;;;;36.47;15.27;;;;;;;2.71;91.56;99119.22;4994123;28;20133;-78
2020/12/12 00:51:55;;;;;;;36.92;14.02;;;;;;;2.87;91.62;99140.44;4982253;28;20061;-74
2020/12/12 00:54:21;;;;;;;37.05;15.05;;;;;;;2.75;91.55;99120.78;4996725;28;20145;-75
2020/12/12 00:56:46;;;;;;;36.75;14.57;;;;;;;2.95;91.56;99147.97;4970779;28;20041;-75
2020/12/12 00:59:11;;;;;;;43.75;18.98;;;;;;;2.88;91.83;99145.63;4993813;28;20041;-80
2020/12/12 01:01:37;;;;;;;33.83;14.25;;;;;;;2.86;91.78;99150.09;4976658;28;20049;-75
2020/12/12 01:04:02;;;;;;;34.38;14.75;;;;;;;2.88;92.02;99145.63;4976448;28;20499;-77
2020/12/12 01:06:27;;;;;;;34.15;14.15;;;;;;;2.88;91.92;99137.72;4960300;28;20476;-77
2020/12/12 01:08:56;;;;;;;30.75;13.93;;;;;;;2.74;92.06;99124.34;4993743;28;20368;-76
2020/12/12 01:11:21;;;;;;;39.72;15.50;;;;;;;2.82;92.39;99139.81;4993480;28;20038;-76
2020/12/12 01:13:47;;;;;;;38.38;15.20;;;;;;;2.69;92.56;99121.06;4993724;28;20395;-76
2020/12/12 01:16:14;;;;;;;35.60;14.57;;;;;;;2.57;92.94;99100.56;4993957;28;20450;-77
2020/12/12 01:18:40;;;;;;;35.30;13.80;;;;;;;2.68;92.60;99114.09;4993574;28;20046;-76
2020/12/12 01:21:05;;;;;;;28.88;13.02;;;;;;;2.86;92.46;99134.31;4993585;28;20031;-76
2020/12/12 01:23:32;;;;;;;30.13;12.57;;;;;;;2.98;91.61;99126.75;4975976;28;20567;-76
2020/12/12 01:25:57;;;;;;;25.20;12.15;;;;;;;2.98;91.10;99126.75;4976233;28;20049;-74
2020/12/12 01:28:23;;;;;;;27.67;12.48;;;;;;;2.79;91.99;99117.06;4993133;28;20038;-76
2020/12/12 01:30:53;;;;;;;28.10;12.07;;;;;;;2.54;92.01;99077.03;4960314;28;20535;-75
2020/12/12 01:33:19;;;;;;;27.00;12.30;;;;;;;2.59;92.04;99082.91;4975844;28;20034;-78
2020/12/12 01:35:44;;;;;;;28.10;12.80;;;;;;;2.85;91.83;99106.25;4993682;28;20065;-77
2020/12/12 01:38:11;;;;;;;28.88;11.85;;;;;;;2.93;91.82;99120.88;4960265;28;20073;-78
2020/12/12 01:40:36;;;;;;;27.70;11.23;;;;;;;2.98;91.87;99124.97;4975685;28;20419;-77
2020/12/12 01:43:02;;;;;;;22.00;9.65;;;;;;;2.99;91.21;99118.81;4976208;28;20126;-76
2020/12/12 01:45:27;;;;;;;22.45;11.15;;;;;;;3.05;90.17;99120.28;4993490;28;20084;-76
2020/12/12 01:47:53;;;;;;;23.25;10.57;;;;;;;2.82;90.70;99087.13;4980212;28;20046;-77
2020/12/12 01:50:20;;;;;;;28.48;12.32;;;;;;;2.80;90.90;99086.34;4979678;28;20045;-78
2020/12/12 01:52:50;;;;;;;27.90;11.40;;;;;;;2.93;90.37;99097.16;4979852;28;20037;-78
2020/12/12 01:55:25;;;;;;;28.17;12.30;;;;;;;2.98;90.88;99110.94;4996769;28;20392;-76
2020/12/12 01:57:54;;;;;;;24.42;11.32;;;;;;;3.03;91.15;99106.31;4997430;28;20034;-76
2020/12/12 02:00:22;;;;;;;24.52;11.02;;;;;;;2.97;91.02;99114.50;4980248;28;20476;-77
2020/12/12 02:02:49;;;;;;;23.73;10.98;;;;;;;2.97;91.53;99109.25;4997356;28;20034;-73
2020/12/12 02:05:38;;;;;;;24.10;10.93;;;;;;;2.83;91.49;99092.31;4997156;28;20033;-76
2020/12/12 02:08:06;;;;;;;26.50;11.27;;;;;;;2.96;91.74;99112.81;4996981;28;20031;-74
2020/12/12 02:10:32;;;;;;;23.25;10.52;;;;;;;2.76;91.07;99079.50;4979337;28;20554;-76
2020/12/12 02:13:02;;;;;;;25.40;10.55;;;;;;;2.83;92.16;99105.50;4979631;28;20114;-75
2020/12/12 02:15:28;;;;;;;21.52;10.32;;;;;;;2.81;92.25;99109.97;4996551;28;20506;-76
2020/12/12 02:17:53;;;;;;;22.50;10.52;;;;;;;2.85;92.39;99111.53;4979243;28;20042;-76
2020/12/12 02:20:18;;;;;;;27.10;11.30;;;;;;;2.76;92.71;99096.16;4978972;28;20037;-76
2020/12/12 02:22:45;;;;;;;23.98;10.85;;;;;;;2.92;92.80;99116.53;4996798;28;20113;-75
2020/12/12 02:25:11;;;;;;;22.35;10.07;;;;;;;2.89;93.03;99112.22;4997010;28;20034;-75
2020/12/12 02:27:36;;;;;;;24.83;10.50;;;;;;;2.57;93.02;99066.34;4979159;28;20812;-77
2020/12/12 02:30:04;;;;;;;22.00;9.95;;;;;;;2.94;92.58;99106.75;4996810;28;20399;-77
2020/12/12 02:32:29;;;;;;;21.83;10.15;;;;;;;2.79;93.03;99098.63;4978894;28;20038;-77
2020/12/12 02:34:54;;;;;;;21.45;9.73;;;;;;;2.74;93.02;99087.47;4979127;28;20038;-77
2020/12/12 02:37:20;;;;;;;23.42;10.73;;;;;;;2.84;92.92;99093.19;4979071;28;20046;-79
2020/12/12 02:39:45;;;;;;;24.15;11.07;;;;;;;2.78;93.12;99078.50;4996582;28;20080;-77
2020/12/12 02:42:10;;;;;;;25.17;10.63;;;;;;;2.84;93.33;99096.66;4963282;28;20130;-78
2020/12/12 02:44:36;;;;;;;23.65;10.88;;;;;;;2.85;93.15;99095.72;4996419;28;20065;-78
2020/12/12 02:47:01;;;;;;;22.83;10.50;;;;;;;2.72;93.19;99062.16;4978973;28;20099;-77
2020/12/12 02:49:26;;;;;;;21.05;9.23;;;;;;;2.98;92.71;99097.78;4978760;28;20049;-78
2020/12/12 02:51:52;;;;;;;22.15;10.18;;;;;;;2.94;93.10;99093.59;4996494;28;20081;-77
2020/12/12 02:54:17;;;;;;;25.38;11.13;;;;;;;2.79;93.38;99082.84;4978870;28;20488;-78
2020/12/12 02:56:42;;;;;;;22.23;10.20;;;;;;;2.83;93.70;99079.16;4995839;28;20509;-75
2020/12/12 02:59:08;;;;;;;20.70;9.68;;;;;;;2.97;93.58;99082.91;4977866;28;20162;-76
2020/12/12 03:01:37;;;;;;;23.00;10.30;;;;;;;2.72;93.24;99051.63;4978427;28;20089;-76
2020/12/12 03:04:02;;;;;;;24.65;10.20;;;;;;;2.95;93.47;99084.75;4995981;28;20045;-77
2020/12/12 03:06:28;;;;;;;22.73;10.90;;;;;;;2.86;93.10;99072.88;4978292;28;20039;-76
2020/12/12 03:08:53;;;;;;;22.05;10.13;;;;;;;2.87;93.19;99078.06;4996293;28;20049;-79
2020/12/12 03:11:19;;;;;;;20.98;10.20;;;;;;;3.00;92.56;99080.13;4996186;28;20419;-77
2020/12/12 03:13:44;;;;;;;20.90;9.95;;;;;;;2.67;92.97;99035.19;4962292;28;20052;-78
2020/12/12 03:16:09;;;;;;;23.60;10.63;;;;;;;3.00;92.96;99080.13;4995980;28;20030;-77
2020/12/12 03:18:35;;;;;;;24.25;10.70;;;;;;;3.02;92.92;99089.66;4978101;28;20046;-77
2020/12/12 03:21:00;;;;;;;25.48;11.63;;;;;;;3.08;92.85;99085.88;4995882;28;20031;-78
2020/12/12 03:23:25;;;;;;;25.75;11.68;;;;;;;2.85;92.90;99050.97;4978149;28;20113;-77
2020/12/12 03:25:51;;;;;;;22.50;10.60;;;;;;;2.85;92.65;99043.06;4978421;28;20125;-78
2020/12/12 03:28:16;;;;;;;27.60;11.43;;;;;;;3.05;92.87;99094.78;4995484;28;20121;-76
2020/12/12 03:30:41;;;;;;;27.52;11.38;;;;;;;3.08;92.45;99072.69;4995227;28;20552;-77
2020/12/12 03:33:07;;;;;;;29.25;11.90;;;;;;;3.03;92.02;99078.19;4961963;28;20396;-78
2020/12/12 03:35:32;;;;;;;26.08;10.80;;;;;;;3.11;92.28;99091.88;4995390;28;20073;-77
2020/12/12 03:37:59;;;;;;;27.85;11.93;;;;;;;3.04;92.24;99079.91;4978067;28;20118;-79
2020/12/12 03:40:24;;;;;;;27.17;11.55;;;;;;;3.16;92.23;99086.34;4977858;28;20042;-79
2020/12/12 03:42:53;;;;;;;26.13;11.82;;;;;;;3.14;92.14;99080.31;4961994;28;20035;-82
2020/12/12 03:45:20;;;;;;;24.65;11.68;;;;;;;3.04;92.23;99073.78;4995415;28;20073;-82
2020/12/12 03:47:46;;;;;;;26.88;11.45;;;;;;;2.88;92.11;99048.16;4977709;28;20181;-83
2020/12/12 03:50:11;;;;;;;31.73;12.65;;;;;;;3.06;92.32;99085.94;4977803;28;20038;-83
2020/12/12 03:52:37;;;;;;;25.73;11.25;;;;;;;3.07;92.46;99079.75;4977438;28;20037;-81
2020/12/12 03:55:03;;;;;;;25.30;10.98;;;;;;;3.07;92.01;99068.34;4977650;28;20046;-80
2020/12/12 03:57:28;;;;;;;25.77;11.88;;;;;;;3.03;92.42;99082.63;4994641;28;20034;-81
2020/12/12 03:59:53;;;;;;;28.67;11.80;;;;;;;3.07;92.27;99079.75;4995263;28;20034;-81
2020/12/12 04:02:19;;;;;;;23.88;11.05;;;;;;;3.02;92.16;99080.91;4977318;28;20145;-83
2020/12/12 04:04:44;;;;;;;26.45;11.32;;;;;;;2.98;92.61;99074.91;4994565;28;20034;-83
2020/12/12 04:07:09;;;;;;;27.70;11.52;;;;;;;2.96;92.61;99079.41;4961477;28;20076;-81
2020/12/12 04:09:35;;;;;;;27.60;11.18;;;;;;;2.81;92.55;99041.50;4977113;28;20085;-82
2020/12/12 04:12:00;;;;;;;27.08;10.43;;;;;;;3.05;92.15;99080.75;4961397;28;20034;-80
2020/12/12 04:14:25;;;;;;;21.80;9.68;;;;;;;2.99;92.14;99078.41;4994677;28;20046;-77
2020/12/12 04:16:51;;;;;;;23.50;9.20;;;;;;;2.82;92.14;99068.69;4961197;28;20093;-78
2020/12/12 04:19:16;;;;;;;20.88;9.80;;;;;;;2.87;92.25;99075.44;4977080;28;20069;-75
2020/12/12 04:21:42;;;;;;;22.60;9.73;;;;;;;2.80;92.41;99060.88;4994414;28;20030;-78
2020/12/12 04:24:07;;;;;;;20.25;9.40;;;;;;;2.83;92.59;99076.53;4994707;28;20050;-76
2020/12/12 04:26:32;;;;;;;21.73;9.15;;;;;;;2.60;92.87;99031.97;4960843;28;20487;-76
2020/12/12 04:28:57;;;;;;;20.10;9.07;;;;;;;2.72;93.31;99065.66;4994463;28;20065;-76
2020/12/12 04:31:23;;;;;;;20.83;9.15;;;;;;;2.88;93.37;99081.56;4960759;28;20030;-77
2020/12/12 04:33:48;;;;;;;18.85;9.10;;;;;;;2.84;92.38;99083.50;4976986;28;20039;-76
2020/12/12 04:36:15;;;;;;;18.48;8.65;;;;;;;2.79;92.36;99060.91;4977291;28;20498;-76
2020/12/12 04:38:41;;;;;;;19.38;8.48;;;;;;;2.77;91.74;99066.25;4976587;28;20042;-76
2020/12/12 04:41:07;;;;;;;19.50;8.77;;;;;;;2.88;92.02;99086.81;4994442;28;20040;-76
2020/12/12 04:43:39;;;;;;;19.20;8.43;;;;;;;2.91;91.85;99081.44;4976674;28;20034;-76
2020/12/12 04:46:05;;;;;;;19.08;8.85;;;;;;;2.68;92.46;99068.47;4994160;28;20026;-75
2020/12/12 04:48:31;;;;;;;19.33;9.35;;;;;;;2.81;92.41;99077.53;4976489;28;20042;-78
2020/12/12 04:50:57;;;;;;;18.92;8.65;;;;;;;2.83;92.38;99079.16;4994018;28;20092;-76
2020/12/12 04:53:24;;;;;;;18.50;8.63;;;;;;;2.83;92.00;99081.78;4993950;28;20046;-77
2020/12/12 04:55:52;;;;;;;19.98;9.40;;;;;;;2.81;92.36;99091.53;4993655;28;20539;-75
2020/12/12 04:58:20;;;;;;;19.02;8.15;;;;;;;2.87;92.27;99088.59;4976513;28;20511;-75
2020/12/12 05:00:47;;;;;;;18.17;8.48;;;;;;;2.79;92.36;99074.09;4993407;28;20050;-75
2020/12/12 05:03:14;;;;;;;19.48;8.15;;;;;;;2.63;91.79;99045.00;4993976;28;20034;-75
2020/12/12 05:05:41;;;;;;;17.92;8.18;;;;;;;2.88;92.16;99086.81;4993649;28;20045;-74
2020/12/12 05:08:08;;;;;;;18.77;9.23;;;;;;;2.78;91.87;99089.03;4960606;28;20372;-75
2020/12/12 05:10:48;;;;;;;16.83;8.07;;;;;;;2.77;92.12;99084.69;4993599;28;20030;-75
2020/12/12 05:13:25;;;;;;;20.30;9.13;;;;;;;2.78;92.01;99085.53;4976433;28;20060;-76
2020/12/12 05:15:52;;;;;;;17.70;8.55;;;;;;;2.73;91.66;99080.50;4993518;28;20038;-75
2020/12/12 05:18:19;;;;;;;19.38;8.35;;;;;;;2.78;91.89;99086.41;4993660;28;20092;-78
2020/12/12 05:20:45;;;;;;;18.73;8.55;;;;;;;2.58;91.47;99045.22;4992935;28;20045;-76
2020/12/12 05:23:15;;;;;;;18.23;8.48;;;;;;;2.78;91.33;99065.34;4993699;28;20069;-76
2020/12/12 05:25:42;;;;;;;20.25;9.10;;;;;;;2.61;91.43;99051.28;4993454;28;20459;-76
2020/12/12 05:28:09;;;;;;;18.38;8.30;;;;;;;2.79;91.23;99088.09;4976486;28;20096;-78
2020/12/12 05:30:39;;;;;;;18.75;8.80;;;;;;;2.80;91.00;99089.84;4960047;28;20388;-77
2020/12/12 05:33:10;;;;;;;20.08;8.70;;;;;;;2.68;91.39;99068.47;4976243;28;20034;-78
2020/12/12 05:35:35;;;;;;;17.25;8.23;;;;;;;2.72;91.19;99083.22;4993200;28;20085;-78
2020/12/12 05:38:02;;;;;;;18.10;8.15;;;;;;;2.60;90.98;99074.09;4959819;28;20431;-77
2020/12/12 05:40:28;;;;;;;16.40;7.57;;;;;;;2.68;90.99;99082.50;4993769;28;20034;-79
2020/12/12 05:42:53;;;;;;;18.83;8.65;;;;;;;2.78;90.56;99081.13;4975917;28;20069;-78
2020/12/12 05:45:19;;;;;;;19.33;8.30;;;;;;;2.74;90.45;99069.06;4993448;28;20030;-78
2020/12/12 05:47:44;;;;;;;18.55;8.30;;;;;;;2.81;89.88;99078.38;4993149;28;20114;-79
2020/12/12 05:50:10;;;;;;;16.48;8.40;;;;;;;2.58;90.34;99055.75;4994777;28;20097;-76
2020/12/12 05:52:39;;;;;;;18.30;8.70;;;;;;;2.43;90.16;99045.94;4968978;28;20062;-78
2020/12/12 05:55:05;;;;;;;18.17;8.35;;;;;;;2.62;89.67;99069.63;4995431;28;20169;-76
2020/12/12 05:57:31;;;;;;;14.57;6.97;;;;;;;2.63;88.86;99083.66;4960172;28;20125;-77
2020/12/12 05:59:58;;;;;;;17.58;8.32;;;;;;;2.62;89.42;99090.69;4960117;28;20147;-75
2020/12/12 06:02:25;;;;;;;21.90;8.63;;;;;;;2.28;89.65;99041.38;4976084;28;20391;-76
2020/12/12 06:04:52;;;;;;;21.80;8.35;;;;;;;2.57;89.51;99096.16;4975450;28;20112;-76
2020/12/12 06:07:29;;;;;;;19.38;8.35;;;;;;;2.58;89.91;99091.75;4993138;28;20053;-78
2020/12/12 06:10:04;;;;;;;17.35;7.97;;;;;;;2.37;90.11;99056.75;4975771;28;20050;-78
2020/12/12 06:12:29;;;;;;;19.13;8.32;;;;;;;2.47;90.08;99080.84;4993086;28;20105;-78
2020/12/12 06:14:57;;;;;;;19.33;8.45;;;;;;;2.50;90.37;99084.19;4975396;28;20117;-77
2020/12/12 06:17:54;;;;;;;20.25;8.48;;;;;;;2.63;90.46;99089.78;4993031;28;20072;-76
2020/12/12 06:20:20;;;;;;;20.80;8.68;;;;;;;2.51;90.74;99064.88;4967025;28;20052;-77
2020/12/12 06:22:46;;;;;;;19.90;8.82;;;;;;;2.58;90.88;99066.28;4959694;28;20451;-77
2020/12/12 06:25:15;;;;;;;25.25;10.25;;;;;;;2.55;91.09;99058.53;4993064;28;20460;-78
2020/12/12 06:27:48;;;;;;;18.73;9.07;;;;;;;2.68;90.87;99079.84;4993000;28;20107;-78
2020/12/12 06:30:14;;;;;;;23.60;9.35;;;;;;;2.49;90.98;99044.78;4975943;28;20034;-79
2020/12/12 06:32:41;;;;;;;20.80;9.25;;;;;;;2.60;91.48;99068.81;4976054;28;20093;-78
2020/12/12 06:35:07;;;;;;;16.55;8.15;;;;;;;2.63;90.37;99068.69;4996912;28;20030;-78
2020/12/12 06:37:32;;;;;;;20.27;7.90;;;;;;;2.65;90.60;99068.63;4996709;28;20089;-78
2020/12/12 06:40:00;;;;;;;22.23;8.82;;;;;;;2.59;90.06;99077.66;4979169;28;20399;-78
2020/12/12 06:42:48;;;;;;;19.05;7.97;;;;;;;2.51;90.44;99077.16;4996876;28;20026;-79
2020/12/12 06:45:17;;;;;;;17.80;8.90;;;;;;;2.51;91.02;99078.03;4983886;28;20428;-79
2020/12/12 06:47:53;;;;;;;17.83;8.70;;;;;;;2.51;91.47;99074.50;4978774;28;20073;-77
2020/12/12 06:50:21;;;;;;;19.80;8.25;;;;;;;2.37;90.19;99061.16;4996692;28;20030;-77
2020/12/12 06:52:47;;;;;;;18.13;7.97;;;;;;;2.52;89.94;99089.41;4996699;28;20030;-80
2020/12/12 06:55:14;;;;;;;23.30;9.18;;;;;;;2.45;90.04;99080.94;4960417;28;20149;-79
2020/12/12 07:00:09;;;;;;;16.42;7.57;;;;;;;2.47;89.81;99076.44;4975801;28;20030;-78
2020/12/12 07:02:34;;;;;;;20.67;9.35;;;;;;;2.62;89.99;99092.47;4976805;28;20035;-78
2020/12/12 07:05:26;;;;;;;18.75;8.63;;;;;;;2.64;89.89;99098.50;4976266;28;20130;-79
2020/12/12 07:07:52;;;;;;;18.83;7.97;;;;;;;2.48;89.88;99069.41;4973971;28;20051;-78
2020/12/12 07:10:18;;;;;;;18.70;8.40;;;;;;;2.41;89.33;99067.97;4975322;28;20039;-77
2020/12/12 07:12:44;;;;;;;18.33;8.30;;;;;;;2.42;90.65;99067.91;4976358;28;20047;-77
2020/12/12 07:15:10;;;;;;;21.38;8.48;;;;;;;2.69;90.04;99107.03;4975336;28;20478;-78
2020/12/12 07:17:35;;;;;;;19.83;8.40;;;;;;;2.64;90.03;99095.88;4976581;28;20042;-77
2020/12/12 07:20:02;;;;;;;20.85;8.98;;;;;;;2.64;90.03;99091.47;4958891;28;20041;-83
2020/12/12 07:22:29;;;;;;;21.65;8.88;;;;;;;2.74;90.29;99102.44;4975157;28;20121;-80
2020/12/12 07:24:56;;;;;;;22.25;9.40;;;;;;;2.74;90.38;99107.69;4976396;28;20050;-81
2020/12/12 07:27:22;;;;;;;20.88;9.25;;;;;;;2.81;90.44;99099.44;4976428;28;20046;-76
2020/12/12 07:29:47;;;;;;;21.15;8.57;;;;;;;2.57;89.89;99068.97;4980604;28;20043;-77
2020/12/12 07:32:13;;;;;;;34.42;13.73;;;;;;;2.83;90.09;99110.75;4975144;28;20031;-76
2020/12/12 07:34:38;;;;;;;24.15;11.13;;;;;;;2.79;90.52;99110.94;4975102;28;20049;-72
2020/12/12 07:37:07;;;;;;;26.48;9.77;;;;;;;2.79;89.74;99095.16;4975704;28;20035;-73
2020/12/12 07:39:42;;;;;;;21.50;9.25;;;;;;;2.74;89.70;99112.97;4976304;28;20038;-72
2020/12/12 07:42:10;;;;;;;23.73;10.38;;;;;;;2.40;89.68;99063.63;4976294;28;20031;-73
2020/12/12 07:44:48;;;;;;;25.63;10.05;;;;;;;2.72;90.56;99123.56;4975856;28;20414;-71
2020/12/12 07:47:13;;;;;;;25.58;10.57;;;;;;;2.81;90.29;99122.28;4976423;28;20038;-74
2020/12/12 07:49:39;;;;;;;24.13;10.10;;;;;;;2.74;90.01;99126.13;4974844;28;20043;-78
2020/12/12 07:52:11;;;;;;;24.60;10.55;;;;;;;2.73;90.72;99117.38;4975764;28;20488;-78
2020/12/12 07:55:05;;;;;;;25.37;10.77;;;;;;;2.83;90.30;99113.38;4989624;28;20054;-77
2020/12/12 07:57:32;;;;;;;27.80;10.00;;;;;;;2.74;90.29;99100.66;4995366;28;20326;-79
2020/12/12 08:00:06;;;;;;;27.73;11.15;;;;;;;2.92;90.42;99121.78;4995009;28;20388;-78
2020/12/12 08:02:32;;;;;;;29.38;10.80;;;;;;;2.91;89.83;99122.72;4995093;28;20038;-78
2020/12/12 08:05:02;;;;;;;26.05;10.75;;;;;;;2.72;90.44;99099.88;4977659;28;20092;-77
2020/12/12 08:07:30;;;;;;;26.02;10.13;;;;;;;2.86;89.98;99118.50;4978122;28;20042;-77
2020/12/12 08:09:55;;;;;;;26.05;9.50;;;;;;;2.87;89.26;99114.09;4977314;28;20483;-78
2020/12/12 08:12:33;;;;;;;26.90;11.35;;;;;;;2.79;89.79;99124.13;4977706;28;20085;-77
2020/12/12 08:15:09;;;;;;;25.33;10.27;;;;;;;2.68;89.38;99119.34;4977529;28;20120;-75
2020/12/12 08:17:35;;;;;;;24.95;10.82;;;;;;;2.70;90.48;99130.69;4994978;28;20034;-74
2020/12/12 08:20:02;;;;;;;25.35;10.65;;;;;;;2.66;89.92;99125.63;4961337;28;20041;-76
2020/12/12 08:22:28;;;;;;;27.77;10.77;;;;;;;2.45;89.61;99096.72;4994706;28;20026;-74
2020/12/12 08:24:54;;;;;;;24.08;10.52;;;;;;;2.68;89.88;99132.53;4994520;28;20041;-75
2020/12/12 08:27:27;;;;;;;23.38;10.32;;;;;;;2.69;89.99;99131.59;4977160;28;20046;-74
2020/12/12 08:29:58;;;;;;;24.13;9.70;;;;;;;2.86;89.55;99129.03;4994697;28;20041;-73
2020/12/12 08:32:37;;;;;;;25.42;9.82;;;;;;;2.71;89.61;99108.69;4992892;28;20030;-76
2020/12/12 08:35:21;;;;;;;22.38;9.35;;;;;;;2.75;88.91;99125.19;4986822;28;20100;-74
2020/12/12 08:38:13;;;;;;;24.42;10.23;;;;;;;2.66;89.44;99120.34;4975452;28;20035;-75
2020/12/12 08:40:41;;;;;;;26.92;9.80;;;;;;;2.52;90.03;99118.38;4972264;28;20151;-78
2020/12/12 08:43:08;;;;;;;27.70;10.77;;;;;;;2.67;90.21;99130.81;4973991;28;20033;-77
2020/12/12 08:45:39;;;;;;;24.55;10.52;;;;;;;2.62;89.93;99129.34;4975211;28;20034;-76
2020/12/12 08:48:10;;;;;;;24.67;9.27;;;;;;;2.50;89.55;99126.31;4975459;28;20042;-77
2020/12/12 08:50:53;;;;;;;24.70;9.88;;;;;;;2.61;89.77;99149.53;4960503;28;20526;-78
2020/12/12 08:53:19;;;;;;;23.83;9.80;;;;;;;2.45;89.95;99136.19;4976249;28;20054;-76
2020/12/12 08:56:00;;;;;;;24.27;10.43;;;;;;;2.49;90.56;99161.44;4974597;28;20041;-76
2020/12/12 08:58:51;;;;;;;25.45;9.75;;;;;;;2.60;90.93;99153.06;4974910;28;20038;-77
2020/12/12 09:01:33;;;;;;;23.70;9.20;;;;;;;2.43;90.28;99118.78;4974780;28;20408;-77
2020/12/12 09:04:22;;;;;;;39.03;15.75;;;;;;;2.66;90.10;99144.91;4985300;28;20053;-76
2020/12/12 09:06:58;;;;;;;25.25;10.23;;;;;;;2.70;90.12;99148.25;4994224;28;20077;-76
2020/12/12 09:09:28;;;;;;;21.05;9.13;;;;;;;2.49;90.47;99094.78;4993267;28;20381;-75
2020/12/12 09:12:05;;;;;;;23.13;9.35;;;;;;;2.72;89.98;99152.53;4994369;28;20097;-76
2020/12/12 09:14:32;;;;;;;25.33;9.63;;;;;;;2.73;90.41;99159.50;4994351;28;20038;-71
2020/12/12 09:17:01;;;;;;;26.13;10.63;;;;;;;2.55;90.34;99140.13;4994210;28;20057;-73
2020/12/12 09:19:27;;;;;;;26.17;9.65;;;;;;;2.64;90.28;99138.88;4993009;28;20053;-71
2020/12/12 09:21:53;;;;;;;26.38;9.80;;;;;;;2.65;90.34;99145.84;4991799;28;20423;-74
2020/12/12 09:24:21;;;;;;;27.15;10.75;;;;;;;2.61;90.47;99148.69;4986199;28;20026;-73
2020/12/12 09:26:48;;;;;;;27.45;9.70;;;;;;;2.61;90.44;99127.63;4993274;28;20085;-75
2020/12/12 09:29:14;;;;;;;25.25;9.48;;;;;;;2.71;90.52;99135.03;4993476;28;20506;-74
2020/12/12 09:31:39;;;;;;;28.17;10.23;;;;;;;2.49;90.02;99102.69;4993907;28;20030;-74
2020/12/12 09:34:05;;;;;;;21.92;9.32;;;;;;;2.60;89.95;99132.00;4994176;28;20073;-76
2020/12/12 09:36:30;;;;;;;23.17;10.07;;;;;;;2.61;90.54;99127.63;4993882;28;20034;-75
2020/12/12 09:38:56;;;;;;;35.92;12.75;;;;;;;2.63;90.39;99112.59;4960588;28;20031;-74
2020/12/12 09:41:21;;;;;;;29.17;11.00;;;;;;;2.69;90.23;99121.06;4993828;28;20092;-75
2020/12/12 09:43:48;;;;;;;28.95;11.20;;;;;;;2.52;91.07;99107.84;4976478;28;20099;-73
2020/12/12 09:46:18;;;;;;;24.13;9.43;;;;;;;2.49;90.64;99107.94;4976701;28;20246;-72
2020/12/12 09:48:44;;;;;;;27.10;10.93;;;;;;;2.55;91.21;99118.22;4960931;28;20039;-73
2020/12/12 09:51:10;;;;;;;21.38;9.40;;;;;;;2.66;90.76;99120.34;4993664;28;20208;-74
2020/12/12 09:53:36;;;;;;;25.15;10.52;;;;;;;2.69;90.96;99110.53;4975408;28;20353;-74
2020/12/12 09:56:02;;;;;;;22.38;9.88;;;;;;;2.74;90.55;99113.81;4944457;28;20036;-74
2020/12/12 09:58:28;;;;;;;26.98;9.88;;;;;;;2.77;89.76;99097.88;4976409;28;20038;-74
2020/12/12 10:00:53;;;;;;;23.17;9.32;;;;;;;2.73;89.75;99095.47;4977583;28;20041;-74
2020/12/12 10:03:19;;;;;;;55.60;21.65;;;;;;;2.51;89.17;99058.72;4980605;28;20047;-74
2020/12/12 10:05:45;;;;;;;26.35;10.90;;;;;;;2.75;89.71;99094.44;4976372;28;20041;-77
2020/12/12 10:08:13;;;;;;;20.10;9.02;;;;;;;2.86;89.49;99092.16;4996656;28;20069;-76
2020/12/12 10:10:38;;;;;;;21.27;9.02;;;;;;;2.57;89.30;99058.44;4980369;28;20373;-76
2020/12/12 10:13:04;;;;;;;22.40;9.25;;;;;;;2.86;89.24;99102.69;4997479;28;20058;-76
2020/12/12 10:15:29;;;;;;;20.35;8.38;;;;;;;2.81;88.91;99091.53;4997324;28;20034;-76
2020/12/12 10:17:55;;;;;;;20.83;8.20;;;;;;;2.82;88.69;99089.75;4997217;28;20415;-76
2020/12/12 10:20:21;;;;;;;22.73;8.75;;;;;;;2.73;89.10;99090.19;4980034;28;20045;-74
2020/12/12 10:22:47;;;;;;;23.00;8.60;;;;;;;2.75;89.12;99094.44;4979897;28;20041;-73
2020/12/12 10:25:13;;;;;;;19.55;7.93;;;;;;;2.74;89.04;99076.94;4997050;28;20038;-75
2020/12/12 10:27:39;;;;;;;18.30;8.60;;;;;;;2.74;88.85;99061.16;4996215;28;20498;-75
2020/12/12 10:30:07;;;;;;;21.80;9.13;;;;;;;2.92;88.79;99084.91;4979619;28;20042;-76
2020/12/12 10:32:33;;;;;;;18.88;8.05;;;;;;;3.05;88.54;99096.56;4995982;28;20027;-74
2020/12/12 10:34:58;;;;;;;22.30;8.52;;;;;;;3.06;87.77;99095.63;4997006;28;20392;-76
2020/12/12 10:37:24;;;;;;;16.73;7.55;;;;;;;3.06;87.24;99101.75;4997113;28;20101;-75
2020/12/12 10:42:21;;;;;;;18.42;8.27;;;;;;;3.02;88.40;99094.09;4996914;28;20117;-75
2020/12/12 10:44:46;;;;;;;17.80;7.88;;;;;;;3.01;88.50;99095.88;4979371;28;20134;-76
2020/12/12 10:47:12;;;;;;;15.45;6.72;;;;;;;3.05;87.88;99101.84;4995845;28;20038;-78
2020/12/12 10:49:38;;;;;;;15.90;7.35;;;;;;;3.03;87.38;99101.06;4997188;28;20403;-76
2020/12/12 10:52:05;;;;;;;16.58;7.88;;;;;;;2.96;88.26;99091.72;4997062;28;20080;-78
2020/12/12 10:54:30;;;;;;;17.13;7.68;;;;;;;2.85;88.54;99058.00;4996936;28;20042;-77
2020/12/12 10:56:56;;;;;;;17.40;7.85;;;;;;;3.11;88.62;99091.88;4996889;28;20030;-78
2020/12/12 10:59:21;;;;;;;15.32;7.55;;;;;;;3.23;87.98;99100.09;4996515;28;20069;-78
2020/12/12 11:01:54;;;;;;;18.42;7.68;;;;;;;3.24;88.11;99102.66;4979282;28;20041;-75
2020/12/12 11:04:21;;;;;;;14.13;6.90;;;;;;;3.24;87.57;99097.38;4996643;28;20050;-74
2020/12/12 11:06:47;;;;;;;14.93;7.30;;;;;;;3.17;87.21;99077.53;4996412;28;20472;-76
2020/12/12 11:09:12;;;;;;;15.27;7.38;;;;;;;3.02;87.81;99054.56;4995215;28;20041;-75
2020/12/12 11:11:39;;;;;;;17.33;6.88;;;;;;;3.15;87.91;99087.28;4995222;28;20041;-75
2020/12/12 11:14:06;;;;;;;15.35;6.97;;;;;;;3.04;87.47;99052.72;4996647;28;20030;-78
2020/12/12 11:16:31;;;;;;;15.38;7.22;;;;;;;3.11;87.74;99085.75;4996362;28;20038;-78
2020/12/12 11:18:56;;;;;;;28.40;11.95;;;;;;;2.92;87.84;99032.25;4994182;28;20096;-79
2020/12/12 11:21:27;;;;;;;17.30;7.97;;;;;;;3.10;88.10;99052.41;4995299;28;20031;-78
2020/12/12 11:23:52;;;;;;;14.20;6.97;;;;;;;3.29;87.74;99079.59;4994777;28;20062;-79
2020/12/12 11:26:18;;;;;;;15.95;7.38;;;;;;;3.28;87.76;99069.97;4996064;28;20065;-77
2020/12/12 11:28:45;;;;;;;16.48;7.20;;;;;;;3.45;88.42;99085.78;4996286;28;20077;-78
2020/12/12 11:31:17;;;;;;;15.75;6.82;;;;;;;3.53;87.26;99081.91;4994898;28;20392;-78
2020/12/12 11:33:45;;;;;;;13.75;6.88;;;;;;;3.29;87.50;99053.22;4995036;28;20042;-78
2020/12/12 11:37:02;;;;;;;12.43;6.50;;;;;;;3.24;88.16;99044.69;4996016;28;20035;-78